createdAt,value
2023-02-09T00:00:02.641Z,-2.2
2023-02-09T00:20:02.269Z,-2.3
2023-02-09T00:40:02.578Z,-2.4
2023-02-09T01:00:02.841Z,-2.6
2023-02-09T01:20:02.193Z,-2.8
2023-02-09T01:40:02.587Z,-2.7
2023-02-09T02:00:02.834Z,-2.8
2023-02-09T02:20:02.215Z,-2.8
2023-02-09T02:40:02.591Z,-3
2023-02-09T03:00:02.960Z,-3.1
2023-02-09T03:20:02.458Z,-3.3
2023-02-09T03:40:02.848Z,-3.4
2023-02-09T04:00:02.205Z,-3.6
2023-02-09T04:20:02.793Z,-3.5
2023-02-09T04:40:02.226Z,-3.5
2023-02-09T05:00:02.490Z,-3.6
2023-02-09T05:20:03.194Z,-3.7
2023-02-09T05:40:02.778Z,-3.8
2023-02-09T06:00:02.077Z,-3.9
2023-02-09T06:20:02.679Z,-4.2
2023-02-09T06:40:03.366Z,-4.3
2023-02-09T07:00:02.780Z,-4.2
2023-02-09T07:20:02.311Z,-4.2
2023-02-09T07:40:02.731Z,-3.9
2023-02-09T08:00:03.275Z,-3.6
2023-02-09T08:20:02.920Z,-2.9
2023-02-09T08:40:02.702Z,-2.2
2023-02-09T09:00:05.505Z,-1.5
2023-02-09T09:20:03.385Z,-0.4
2023-02-09T09:40:02.917Z,0.7
2023-02-09T10:00:02.633Z,1.5
2023-02-09T10:20:02.343Z,2.8
2023-02-09T10:40:02.780Z,3.9
2023-02-09T11:00:04.413Z,4.5
2023-02-09T11:20:02.991Z,4.7
2023-02-09T11:40:02.573Z,5.4
2023-02-09T12:00:04.638Z,5.8
2023-02-09T12:20:03.138Z,5.5
2023-02-09T12:40:03.103Z,5.5
2023-02-09T13:00:03.211Z,5.1
2023-02-09T13:20:03.171Z,4.4
2023-02-09T13:40:02.906Z,4.3
2023-02-09T14:00:02.494Z,3.9
2023-02-09T14:20:02.810Z,3.8
2023-02-09T14:40:02.294Z,3.6
2023-02-09T15:00:02.686Z,3.4
2023-02-09T15:20:02.574Z,3.1
2023-02-09T15:40:03.506Z,2.8
2023-02-09T16:00:03.866Z,2.4
2023-02-09T16:20:02.462Z,2
2023-02-09T16:40:02.930Z,1.7
2023-02-09T17:00:02.342Z,1.4
2023-02-09T17:20:03.131Z,1.4
2023-02-09T17:40:02.445Z,1.2
2023-02-09T18:00:02.804Z,1.1
2023-02-09T18:20:02.412Z,1
2023-02-09T18:40:02.751Z,0.9
2023-02-09T19:00:02.238Z,0.7
2023-02-09T19:20:02.743Z,0.6
2023-02-09T19:40:02.404Z,0.5
2023-02-09T20:00:05.692Z,0.4
2023-02-09T20:20:02.919Z,0.2
2023-02-09T20:40:02.256Z,0.1
2023-02-09T21:00:03.565Z,-0.1
2023-02-09T21:20:02.342Z,0
2023-02-09T21:40:02.685Z,-0.2
2023-02-09T22:00:02.422Z,-0.2
2023-02-09T22:20:02.768Z,-0.4
2023-02-09T22:40:02.210Z,-0.3
2023-02-09T23:00:02.620Z,-0.4
2023-02-09T23:20:03.031Z,-0.2
2023-02-09T23:40:02.425Z,-0.1
